Time;durP1;ratioP1;P1;durP2;ratioP2;P2;SDS_P1;SDS_P2;PMS_P1;PMS_P2;Temp;Humidity;BMP_temperature;BMP_pressure;BME280_temperature;BME280_humidity;BME280_pressure;Samples;Min_cycle;Max_cycle;Signal;HPM_P1;HPM_P2
2022/05/26 00:01:13;;;;;;;8.07;6.00;;;;;;;10.07;100.00;99802.25;4235529;28;22553;-64
2022/05/26 00:03:45;;;;;;;8.33;5.57;;;;;;;10.06;100.00;99802.41;4243398;28;20243;-65
2022/05/26 00:06:14;;;;;;;8.87;5.90;;;;;;;9.98;100.00;99800.53;4234917;28;23526;-65
2022/05/26 00:08:40;;;;;;;12.53;5.97;;;;;;;9.92;100.00;99801.16;4233582;28;21556;-65
2022/05/26 00:11:28;;;;;;;12.07;6.13;;;;;;;9.96;100.00;99807.84;4251055;28;20240;-65
2022/05/26 00:13:56;;;;;;;9.50;6.20;;;;;;;9.89;100.00;99801.47;4230772;28;20324;-67
2022/05/26 00:16:23;;;;;;;9.40;6.87;;;;;;;9.78;100.00;99794.59;4240977;28;20357;-65
2022/05/26 00:18:49;;;;;;;9.47;6.50;;;;;;;9.81;100.00;99798.75;4240494;28;20260;-66
2022/05/26 00:21:16;;;;;;;9.13;6.40;;;;;;;9.73;100.00;99799.53;4238838;28;20232;-64
2022/05/26 00:23:43;;;;;;;9.20;6.03;;;;;;;9.75;100.00;99796.75;4241043;28;20370;-65
2022/05/26 00:26:10;;;;;;;12.97;6.37;;;;;;;9.69;100.00;99800.81;4244090;28;20434;-64
2022/05/26 00:28:36;;;;;;;12.93;8.00;;;;;;;9.61;100.00;99801.59;4221600;28;25557;-65
2022/05/26 00:31:03;;;;;;;10.33;7.43;;;;;;;9.58;100.00;99812.56;4238228;28;20248;-65
2022/05/26 00:33:30;;;;;;;13.40;7.60;;;;;;;9.55;100.00;99809.34;4242219;28;20239;-66
2022/05/26 00:36:05;;;;;;;13.50;7.67;;;;;;;9.51;100.00;99806.19;4234019;28;20774;-64
2022/05/26 00:38:32;;;;;;;12.07;7.70;;;;;;;9.47;100.00;99810.13;4232419;28;20234;-67
2022/05/26 00:41:04;;;;;;;10.53;7.30;;;;;;;9.48;100.00;99811.78;4233546;28;20408;-66
2022/05/26 00:43:30;;;;;;;11.07;7.20;;;;;;;9.48;100.00;99806.47;4242667;28;20374;-66
2022/05/26 00:46:16;;;;;;;13.57;7.60;;;;;;;9.32;100.00;99809.84;4238109;28;25059;-66
2022/05/26 00:48:48;;;;;;;11.13;7.47;;;;;;;9.43;100.00;99811.41;4225902;28;23382;-64
2022/05/26 00:51:15;;;;;;;11.47;8.00;;;;;;;9.36;100.00;99807.72;4227216;28;20324;-66
2022/05/26 00:53:51;;;;;;;11.00;7.73;;;;;;;9.36;100.00;99815.66;4239588;28;20624;-64
2022/05/26 00:56:29;;;;;;;10.93;7.73;;;;;;;9.25;100.00;99819.41;4226640;28;20221;-66
2022/05/26 00:59:04;;;;;;;12.10;8.33;;;;;;;9.21;100.00;99813.56;4251196;28;20238;-65
2022/05/26 01:01:31;;;;;;;12.53;8.37;;;;;;;9.22;100.00;99815.22;4226525;28;20243;-64
2022/05/26 01:04:04;;;;;;;15.93;8.70;;;;;;;9.16;100.00;99812.34;4235658;28;21636;-66
2022/05/26 01:06:34;;;;;;;11.60;8.90;;;;;;;9.15;100.00;99814.16;4237396;28;20335;-65
2022/05/26 01:09:03;;;;;;;11.80;8.83;;;;;;;9.15;100.00;99811.50;4223049;28;20520;-64
2022/05/26 01:11:35;;;;;;;11.13;8.90;;;;;;;9.09;100.00;99814.78;4228091;28;20683;-65
2022/05/26 01:14:19;;;;;;;12.70;9.13;;;;;;;9.08;100.00;99803.31;4237889;28;20290;-65
2022/05/26 01:17:00;;;;;;;15.43;9.20;;;;;;;9.04;100.00;99809.09;4231048;28;23010;-65
2022/05/26 01:19:32;;;;;;;13.03;10.07;;;;;;;9.08;100.00;99813.09;4243688;28;20982;-65
2022/05/26 01:22:06;;;;;;;15.40;10.57;;;;;;;9.00;100.00;99810.34;4234227;28;20302;-65
2022/05/26 01:25:02;;;;;;;13.87;10.00;;;;;;;8.98;100.00;99810.50;4236442;28;21235;-63
2022/05/26 01:27:33;;;;;;;15.63;10.47;;;;;;;8.97;100.00;99808.00;4234327;28;23293;-63
2022/05/26 01:30:24;;;;;;;15.43;10.40;;;;;;;8.98;100.00;99801.72;4233169;28;20226;-64
2022/05/26 01:32:57;;;;;;;13.33;10.20;;;;;;;9.00;100.00;99810.34;4248886;28;20235;-64
2022/05/26 01:35:54;;;;;;;14.90;10.43;;;;;;;8.97;100.00;99805.38;4242557;28;20230;-65
2022/05/26 01:38:29;;;;;;;14.43;9.63;;;;;;;9.04;100.00;99811.75;4258270;28;20233;-64
2022/05/26 01:41:20;;;;;;;13.10;10.00;;;;;;;8.91;100.00;99819.22;4241047;28;20583;-65
2022/05/26 01:44:16;;;;;;;15.03;10.27;;;;;;;8.86;100.00;99819.66;4239679;28;21678;-65
2022/05/26 01:46:44;;;;;;;17.37;11.00;;;;;;;8.85;100.00;99813.53;4236384;28;20702;-65
2022/05/26 01:49:19;;;;;;;15.10;10.47;;;;;;;8.84;100.00;99822.44;4243502;28;20370;-65
2022/05/26 01:52:08;;;;;;;15.63;9.93;;;;;;;8.84;100.00;99814.50;4244888;28;20582;-66
2022/05/26 01:54:50;;;;;;;14.80;10.33;;;;;;;8.86;100.00;99814.34;4236880;28;21466;-65
2022/05/26 01:57:39;;;;;;;14.40;10.10;;;;;;;8.82;100.00;99816.47;4236234;28;20230;-63
2022/05/26 02:00:09;;;;;;;13.03;9.60;;;;;;;8.93;100.00;99814.59;4242564;28;20723;-67
2022/05/26 02:02:39;;;;;;;14.40;9.50;;;;;;;8.93;100.00;99817.25;4232849;28;24085;-65
2022/05/26 02:05:15;;;;;;;15.03;10.30;;;;;;;8.83;100.00;99814.66;4235794;28;20250;-65
2022/05/26 02:07:49;;;;;;;15.50;10.10;;;;;;;8.82;100.00;99819.13;4225947;28;21592;-66
2022/05/26 02:10:22;;;;;;;15.07;9.57;;;;;;;8.79;100.00;99814.13;4237919;28;20671;-65
2022/05/26 02:13:03;;;;;;;17.37;9.80;;;;;;;8.83;100.00;99817.31;4236849;28;20226;-65
2022/05/26 02:15:34;;;;;;;14.97;9.43;;;;;;;8.84;100.00;99817.16;4241102;28;20238;-64
2022/05/26 02:18:04;;;;;;;12.53;9.03;;;;;;;8.82;100.00;99816.47;4243766;28;20317;-64
2022/05/26 02:20:44;;;;;;;15.57;9.40;;;;;;;8.76;100.00;99817.06;4242778;28;20235;-65
2022/05/26 02:23:33;;;;;;;12.77;8.33;;;;;;;8.82;100.00;99818.28;4238364;28;20237;-63
2022/05/26 02:26:00;;;;;;;11.70;8.83;;;;;;;8.84;100.00;99816.31;4250067;28;22189;-64
2022/05/26 02:28:28;;;;;;;13.53;9.40;;;;;;;8.75;100.00;99818.03;4246796;28;20242;-65
2022/05/26 02:30:55;;;;;;;15.00;9.97;;;;;;;8.71;100.00;99824.66;4239826;28;20239;-65
2022/05/26 02:33:22;;;;;;;13.07;9.27;;;;;;;8.65;100.00;99818.09;4229409;28;21770;-65
2022/05/26 02:35:50;;;;;;;15.43;9.73;;;;;;;8.67;100.00;99815.31;4256290;28;20545;-66
2022/05/26 02:38:22;;;;;;;17.53;9.47;;;;;;;8.79;100.00;99814.13;4237969;28;20717;-66
2022/05/26 02:40:50;;;;;;;12.47;8.93;;;;;;;8.83;100.00;99819.97;4338032;28;20234;-64
2022/05/26 02:43:20;;;;;;;14.40;8.83;;;;;;;8.82;100.00;99815.63;4273481;28;20229;-66
2022/05/26 02:46:10;;;;;;;12.40;8.37;;;;;;;8.84;100.00;99817.16;4276077;28;20347;-66
2022/05/26 02:48:51;;;;;;;11.53;8.43;;;;;;;8.92;100.00;99818.22;4289126;28;20233;-65
2022/05/26 02:51:37;;;;;;;10.43;7.33;;;;;;;8.98;100.00;99814.97;4282561;28;20238;-65
2022/05/26 02:54:22;;;;;;;11.47;7.87;;;;;;;9.08;100.00;99813.09;4291398;28;21708;-63
2022/05/26 02:57:05;;;;;;;16.07;8.10;;;;;;;9.14;100.00;99812.50;4281794;28;20260;-64
2022/05/26 02:59:52;;;;;;;14.27;7.80;;;;;;;9.00;100.00;99813.00;4247879;28;20230;-65
2022/05/26 03:02:28;;;;;;;12.80;8.20;;;;;;;8.94;100.00;99811.78;4250862;28;21575;-64
2022/05/26 03:05:01;;;;;;;11.67;8.40;;;;;;;9.04;100.00;99820.53;4272675;28;26958;-64
2022/05/26 03:07:30;;;;;;;10.73;7.47;;;;;;;9.02;100.00;99819.00;4252719;28;22221;-65
2022/05/26 03:10:00;;;;;;;9.13;7.23;;;;;;;8.94;100.00;99809.13;4231866;28;21951;-64
2022/05/26 03:12:29;;;;;;;11.50;6.97;;;;;;;8.98;100.00;99814.97;4241592;28;20245;-64
2022/05/26 03:14:56;;;;;;;10.20;7.40;;;;;;;9.11;100.00;99812.81;4252759;28;20405;-67
2022/05/26 03:17:23;;;;;;;11.40;7.13;;;;;;;8.99;100.00;99812.19;4248692;28;22076;-67
2022/05/26 03:19:50;;;;;;;13.07;7.50;;;;;;;9.05;100.00;99810.75;4249406;28;20231;-65
2022/05/26 03:22:17;;;;;;;11.43;7.47;;;;;;;9.12;100.00;99809.16;4237488;28;21386;-64
2022/05/26 03:24:44;;;;;;;11.03;7.33;;;;;;;9.07;100.00;99819.38;4229491;28;20231;-64
2022/05/26 03:27:11;;;;;;;10.93;6.93;;;;;;;9.13;100.00;99809.97;4255131;28;20230;-64
2022/05/26 03:29:38;;;;;;;12.70;6.90;;;;;;;9.15;100.00;99808.84;4247296;28;20449;-64
2022/05/26 03:32:06;;;;;;;11.57;7.10;;;;;;;9.14;100.00;99820.44;4223398;28;20310;-65
2022/05/26 03:42:51;;;;;;;12.43;8.27;;;;;;;9.35;100.00;99824.63;4253341;28;21197;-65
2022/05/26 03:45:20;;;;;;;12.43;9.30;;;;;;;9.40;100.00;99817.03;4239798;28;20278;-64
2022/05/26 03:47:46;;;;;;;13.87;9.53;;;;;;;9.48;100.00;99823.28;4261040;28;20234;-64
2022/05/26 03:50:13;;;;;;;15.40;9.23;;;;;;;9.72;100.00;99830.59;4249176;28;20288;-65
2022/05/26 03:52:39;;;;;;;17.13;9.40;;;;;;;9.71;100.00;99831.56;4239523;28;20238;-64
2022/05/26 03:55:06;;;;;;;13.03;9.47;;;;;;;9.82;100.00;99833.16;4230292;28;20564;-64
2022/05/26 03:57:33;;;;;;;15.10;11.03;;;;;;;9.88;100.00;99835.19;4241670;28;20218;-64
2022/05/26 03:59:59;;;;;;;16.87;10.53;;;;;;;9.87;100.00;99835.34;4255822;28;26287;-64
2022/05/26 04:02:26;;;;;;;14.50;10.77;;;;;;;9.97;100.00;99836.06;4236321;28;20239;-66
2022/05/26 04:04:53;;;;;;;16.07;11.43;;;;;;;10.01;100.00;99826.81;4244925;28;20241;-64
2022/05/26 04:07:20;;;;;;;16.97;11.93;;;;;;;10.05;100.00;99832.66;4239806;28;20245;-66
2022/05/26 04:09:46;;;;;;;19.53;11.40;;;;;;;10.27;100.00;99836.59;4225664;28;21733;-66
2022/05/26 04:12:14;;;;;;;19.63;12.83;;;;;;;10.24;100.00;99835.09;4230456;28;20324;-64
2022/05/26 04:14:40;;;;;;;17.43;12.37;;;;;;;10.35;100.00;99839.34;4248592;28;20782;-64
2022/05/26 04:17:07;;;;;;;16.37;11.97;;;;;;;10.39;100.00;99838.00;4226410;28;21491;-64
2022/05/26 04:19:35;;;;;;;21.07;13.13;;;;;;;10.47;100.00;99843.38;4245793;28;20276;-64
2022/05/26 04:22:23;;;;;;;19.60;13.93;;;;;;;10.50;100.00;99843.06;4235411;28;20219;-66
2022/05/26 04:24:53;;;;;;;18.33;13.13;;;;;;;10.67;100.00;99837.81;4229067;28;20331;-65
2022/05/26 04:27:21;;;;;;;19.03;13.30;;;;;;;10.82;100.00;99838.06;4226692;28;20297;-65
2022/05/26 04:29:48;;;;;;;18.47;14.23;;;;;;;10.83;100.00;99832.53;4239219;28;21599;-66
2022/05/26 04:32:15;;;;;;;18.33;13.20;;;;;;;10.89;100.00;99836.41;4234053;28;20334;-66
2022/05/26 04:34:45;;;;;;;21.60;14.27;;;;;;;10.95;100.00;99839.22;4238126;28;25084;-67
2022/05/26 04:37:12;;;;;;;23.67;15.13;;;;;;;11.02;100.00;99838.59;4241477;28;20238;-66
2022/05/26 04:39:38;;;;;;;19.60;13.77;;;;;;;11.19;100.00;99837.63;4236319;28;21963;-65
2022/05/26 04:42:05;;;;;;;19.37;13.93;;;;;;;11.30;100.00;99828.50;4233156;28;20265;-65
2022/05/26 04:44:37;;;;;;;19.30;14.23;;;;;;;11.39;100.00;99833.66;4253367;28;20327;-63
2022/05/26 04:47:04;;;;;;;20.53;14.67;;;;;;;11.32;100.00;99827.31;4221716;28;23015;-66
2022/05/26 04:49:32;;;;;;;19.13;14.57;;;;;;;11.40;100.00;99834.50;4241190;28;20660;-66
2022/05/26 04:51:58;;;;;;;22.30;16.33;;;;;;;11.50;100.00;99829.03;4234931;28;20239;-66
2022/05/26 04:54:25;;;;;;;23.40;16.30;;;;;;;11.71;100.00;99837.34;4244787;28;23626;-64
2022/05/26 04:56:58;;;;;;;22.80;14.87;;;;;;;11.82;100.00;99834.34;4239315;28;20794;-64
2022/05/26 04:59:25;;;;;;;20.03;14.83;;;;;;;11.93;100.00;99841.19;4229968;28;20260;-64
2022/05/26 05:01:52;;;;;;;25.10;15.17;;;;;;;12.04;100.00;99834.69;4235566;28;22829;-65
2022/05/26 05:04:22;;;;;;;22.13;15.63;;;;;;;12.15;100.00;99839.66;4243274;28;20231;-65
2022/05/26 05:06:48;;;;;;;23.27;14.77;;;;;;;12.21;100.00;99838.97;4242553;28;20310;-65
2022/05/26 05:09:15;;;;;;;23.67;15.80;;;;;;;12.32;100.00;99844.97;4239869;28;20607;-65
2022/05/26 05:11:41;;;;;;;24.30;16.10;;;;;;;12.25;100.00;99840.31;4253871;28;20232;-66
2022/05/26 05:14:08;;;;;;;22.57;15.83;;;;;;;12.43;100.00;99844.56;4238352;28;20230;-64
2022/05/26 05:16:42;;;;;;;21.97;15.27;;;;;;;12.49;100.00;99851.09;4239202;28;20233;-65
2022/05/26 05:19:15;;;;;;;22.47;14.60;;;;;;;12.70;100.00;99853.19;4245841;28;22908;-64
2022/05/26 05:21:51;;;;;;;20.43;14.57;;;;;;;12.77;100.00;99848.81;4251809;28;20383;-64
2022/05/26 05:24:32;;;;;;;24.23;14.50;;;;;;;12.76;100.00;99857.81;4237399;28;20300;-67
2022/05/26 05:27:03;;;;;;;23.70;15.70;;;;;;;12.98;100.00;99865.06;4231836;28;20413;-64
2022/05/26 05:29:33;;;;;;;26.80;14.03;;;;;;;13.09;100.00;99856.66;4243589;28;21716;-64
2022/05/26 05:32:04;;;;;;;24.30;13.60;;;;;;;13.32;100.00;99860.38;4272057;28;20344;-64
2022/05/26 05:34:43;;;;;;;21.67;13.27;;;;;;;13.48;100.00;99853.09;4236054;28;20231;-65
2022/05/26 05:37:10;;;;;;;23.87;13.80;;;;;;;13.93;100.00;99862.09;4249456;28;20337;-66
2022/05/26 05:39:36;;;;;;;16.20;11.70;;;;;;;14.33;100.00;99852.00;4275317;28;20231;-66
2022/05/26 05:42:04;;;;;;;17.43;11.80;;;;;;;14.54;100.00;99866.53;4237623;28;20228;-65
2022/05/26 05:44:34;;;;;;;19.30;11.87;;;;;;;14.97;96.32;99858.66;4251730;28;20285;-65
2022/05/26 05:47:01;;;;;;;17.67;10.77;;;;;;;15.43;92.62;99858.34;4242669;28;20231;-66
2022/05/26 05:49:35;;;;;;;15.83;10.37;;;;;;;15.43;92.05;99861.03;4257706;28;20234;-65
2022/05/26 05:52:10;;;;;;;13.00;10.20;;;;;;;15.02;93.04;99848.19;4244736;28;20234;-68
2022/05/26 05:54:37;;;;;;;15.80;10.00;;;;;;;15.56;90.14;99852.25;4249881;28;20243;-65
2022/05/26 05:57:05;;;;;;;17.00;9.70;;;;;;;15.95;88.72;99865.22;4233003;28;20227;-65
2022/05/26 05:59:35;;;;;;;14.00;9.20;;;;;;;16.43;85.23;99876.09;4242665;28;20239;-65
2022/05/26 06:02:02;;;;;;;16.30;9.57;;;;;;;16.59;86.07;99874.97;4252151;28;20697;-64
2022/05/26 06:04:49;;;;;;;12.23;8.40;;;;;;;17.56;79.42;99864.16;4253570;28;20226;-66
2022/05/26 06:07:19;;;;;;;12.30;7.50;;;;;;;18.21;74.10;99859.03;4244588;28;23401;-65
2022/05/26 06:09:47;;;;;;;12.17;8.00;;;;;;;17.88;75.21;99860.72;4248126;28;20323;-67
2022/05/26 06:12:14;;;;;;;12.70;7.27;;;;;;;17.96;74.74;99862.38;4232195;28;20227;-66
2022/05/26 06:14:44;;;;;;;11.97;7.70;;;;;;;18.77;69.75;99862.03;4238009;28;20254;-65
2022/05/26 06:17:10;;;;;;;11.93;7.10;;;;;;;19.68;65.65;99870.94;4245623;28;20906;-66
2022/05/26 06:19:38;;;;;;;9.30;6.37;;;;;;;21.00;59.35;99886.97;4248372;28;20327;-65
2022/05/26 06:22:15;;;;;;;10.50;7.33;;;;;;;19.85;61.69;99865.00;4232180;28;20279;-65
2022/05/26 06:24:41;;;;;;;11.50;6.67;;;;;;;20.10;61.23;99862.31;4259345;28;22468;-68
2022/05/26 06:29:56;;;;;;;9.97;7.00;;;;;;;19.49;63.64;99861.09;4244281;28;20361;-68
2022/05/26 06:37:56;;;;;;;8.87;5.80;;;;;;;20.51;58.86;99858.16;4250472;28;21517;-68
2022/05/26 06:40:23;;;;;;;8.97;5.63;;;;;;;20.88;56.22;99861.72;4235152;28;20335;-68
2022/05/26 06:42:50;;;;;;;8.03;5.60;;;;;;;21.23;54.73;99856.47;4254221;28;20275;-69
2022/05/26 06:45:20;;;;;;;8.77;5.20;;;;;;;20.82;55.01;99851.81;4231630;28;20233;-67
2022/05/26 06:47:46;;;;;;;9.37;5.37;;;;;;;21.32;54.86;99846.16;4243828;28;20405;-67
2022/05/26 06:50:14;;;;;;;10.07;5.07;;;;;;;22.03;52.22;99857.16;4241063;28;20278;-72
2022/05/26 06:52:42;;;;;;;9.47;4.87;;;;;;;22.33;51.33;99848.97;4228591;28;20247;-67
2022/05/26 06:55:09;;;;;;;7.60;5.27;;;;;;;22.55;51.11;99854.63;4234795;28;20243;-69
2022/05/26 06:57:36;;;;;;;7.80;4.87;;;;;;;23.23;46.70;99849.50;4264764;28;20660;-69
2022/05/26 07:00:08;;;;;;;6.37;4.33;;;;;;;22.72;47.69;99836.53;4241516;28;20226;-70
2022/05/26 07:02:35;;;;;;;5.80;4.40;;;;;;;22.81;46.64;99841.59;4262291;28;20231;-68
2022/05/26 07:05:04;;;;;;;8.23;4.53;;;;;;;23.21;46.20;99843.50;4238881;28;20686;-69
2022/05/26 07:07:34;;;;;;;10.23;4.40;;;;;;;22.79;46.96;99832.88;4255124;28;20329;-70
2022/05/26 07:10:03;;;;;;;6.47;4.20;;;;;;;23.43;46.91;99839.00;4279498;28;20290;-72
2022/05/26 07:12:33;;;;;;;8.20;4.70;;;;;;;23.86;44.94;99843.03;4267824;28;20237;-69
2022/05/26 07:15:00;;;;;;;8.47;3.93;;;;;;;25.39;40.66;99848.88;4270939;28;20237;-70
2022/05/26 07:17:28;;;;;;;9.43;4.30;;;;;;;24.16;43.21;99833.69;4253496;28;21908;-70
2022/05/26 07:19:54;;;;;;;8.27;4.37;;;;;;;24.26;43.13;99839.28;4268060;28;20243;-72
2022/05/26 07:22:23;;;;;;;7.47;4.70;;;;;;;23.39;44.33;99835.16;4282517;28;20265;-69
2022/05/26 07:24:51;;;;;;;9.33;4.87;;;;;;;22.09;49.24;99823.72;4254819;28;21611;-67
2022/05/26 07:27:19;;;;;;;7.57;4.50;;;;;;;21.97;50.00;99817.50;4254464;28;21299;-70
2022/05/26 07:29:51;;;;;;;6.60;4.23;;;;;;;21.81;50.48;99817.13;4236316;28;20232;-65
2022/05/26 07:32:18;;;;;;;10.50;3.90;;;;;;;22.11;50.62;99822.44;4255650;28;23240;-67
2022/05/26 07:34:45;;;;;;;7.13;3.40;;;;;;;21.32;53.08;99819.09;4271386;28;21892;-68
2022/05/26 07:42:44;;;;;;;9.77;3.77;;;;;;;21.30;52.63;99815.78;4248654;28;20259;-68
2022/05/26 07:45:12;;;;;;;8.17;3.27;;;;;;;21.46;51.63;99814.34;4244880;28;23022;-71
2022/05/26 07:47:39;;;;;;;5.47;3.03;;;;;;;21.28;50.88;99812.50;4258272;28;22114;-71
2022/05/26 07:50:08;;;;;;;6.97;2.90;;;;;;;21.31;51.51;99806.63;4228402;28;20372;-52
2022/05/26 07:52:35;;;;;;;7.00;2.50;;;;;;;20.79;51.17;99809.84;4224052;28;20668;-70
2022/05/26 07:55:03;;;;;;;3.87;2.40;;;;;;;21.02;51.92;99805.56;4254926;28;20233;-69
2022/05/26 07:57:30;;;;;;;3.80;2.50;;;;;;;20.74;52.50;99811.56;4262108;28;25766;-68
2022/05/26 07:59:58;;;;;;;6.00;2.40;;;;;;;20.65;50.46;99803.75;4258443;28;20237;-69
2022/05/26 08:02:25;;;;;;;6.80;2.60;;;;;;;20.46;51.40;99799.38;4240754;28;20305;-70
2022/05/26 08:04:53;;;;;;;5.00;2.63;;;;;;;20.30;53.12;99806.22;4239958;28;21222;-69
2022/05/26 08:07:19;;;;;;;5.90;2.50;;;;;;;20.29;54.29;99795.63;4238049;28;21256;-70
2022/05/26 08:09:46;;;;;;;4.93;2.10;;;;;;;20.34;51.45;99795.78;4252416;28;22746;-70
2022/05/26 08:12:13;;;;;;;3.03;1.80;;;;;;;20.12;50.67;99804.31;4255760;28;20246;-68
2022/05/26 08:14:41;;;;;;;4.53;2.00;;;;;;;20.05;50.20;99789.22;4246096;28;20235;-69
2022/05/26 08:17:11;;;;;;;5.83;1.73;;;;;;;19.97;50.06;99793.03;4238936;28;20245;-69
2022/05/26 08:19:38;;;;;;;5.00;1.63;;;;;;;20.14;51.16;99796.81;4238594;28;21824;-69
2022/05/26 08:22:04;;;;;;;3.73;1.60;;;;;;;20.18;49.53;99802.59;4224737;28;20247;-69
2022/05/26 08:24:34;;;;;;;5.40;1.87;;;;;;;19.68;48.90;99799.91;4247636;28;20236;-68
2022/05/26 08:27:01;;;;;;;3.47;1.80;;;;;;;19.64;48.82;99796.81;4241807;28;20234;-69
2022/05/26 08:29:28;;;;;;;5.37;1.57;;;;;;;19.56;49.21;99794.41;4235071;28;22876;-67
2022/05/26 08:31:54;;;;;;;3.20;1.90;;;;;;;19.42;48.17;99795.53;4244370;28;20247;-69
2022/05/26 08:34:21;;;;;;;4.20;2.17;;;;;;;19.52;50.60;99796.69;4261149;28;21255;-67
2022/05/26 08:36:48;;;;;;;2.60;2.00;;;;;;;19.60;52.63;99790.22;4246220;28;20285;-68
2022/05/26 08:39:15;;;;;;;3.77;1.70;;;;;;;19.59;50.63;99794.78;4248056;28;20233;-68
2022/05/26 08:41:47;;;;;;;10.13;2.10;;;;;;;19.67;49.99;99785.59;4253081;28;20290;-68
2022/05/26 08:44:30;;;;;;;3.23;1.67;;;;;;;19.43;49.76;99795.31;4247860;28;20222;-68
2022/05/26 08:47:12;;;;;;;4.90;2.17;;;;;;;19.55;49.53;99798.13;4223358;28;20304;-69
2022/05/26 08:49:46;;;;;;;4.37;2.10;;;;;;;19.48;49.40;99781.16;4252566;28;22217;-68
2022/05/26 08:52:28;;;;;;;3.00;1.70;;;;;;;19.38;50.49;99806.75;4240984;28;20477;-67
2022/05/26 08:55:00;;;;;;;3.13;1.70;;;;;;;19.42;50.72;99798.25;4268657;28;20229;-70
2022/05/26 08:57:32;;;;;;;4.70;1.60;;;;;;;19.51;50.26;99796.94;4267740;28;23060;-67
2022/05/26 08:59:58;;;;;;;6.20;1.90;;;;;;;19.81;47.89;99805.25;4277210;28;21676;-68
2022/05/26 09:02:34;;;;;;;2.70;1.50;;;;;;;19.86;48.88;99805.41;4249312;28;20231;-67
2022/05/26 09:05:10;;;;;;;7.33;1.50;;;;;;;20.43;49.98;99799.81;4256351;28;20227;-70
2022/05/26 09:13:16;;;;;;;4.67;1.47;;;;;;;19.91;43.49;99796.63;4243349;28;20235;-69
2022/05/26 09:15:43;;;;;;;4.77;1.50;;;;;;;20.09;45.19;99793.97;4241776;28;20462;-69
2022/05/26 09:18:16;;;;;;;4.73;1.50;;;;;;;20.14;47.44;99791.41;4246408;28;20234;-69
2022/05/26 09:20:45;;;;;;;3.87;1.30;;;;;;;19.62;46.89;99798.94;4250504;28;20246;-68
2022/05/26 09:23:22;;;;;;;5.47;1.47;;;;;;;19.58;47.37;99797.72;4239978;28;20239;-70
2022/05/26 09:25:53;;;;;;;5.67;1.80;;;;;;;19.79;48.14;99791.94;4257917;28;20229;-68
2022/05/26 09:28:50;;;;;;;4.43;1.97;;;;;;;20.03;45.33;99806.47;4256198;28;21724;-69
2022/05/26 09:31:27;;;;;;;2.57;1.40;;;;;;;19.90;46.34;99798.50;4259519;28;20301;-68
2022/05/26 09:34:14;;;;;;;6.57;2.13;;;;;;;20.05;44.54;99806.25;4246034;28;20237;-69
2022/05/26 09:37:00;;;;;;;4.97;1.60;;;;;;;19.84;46.36;99790.47;4237559;28;20316;-68
2022/05/26 09:39:34;;;;;;;10.00;1.37;;;;;;;19.70;46.61;99793.28;4251862;28;20227;-68
2022/05/26 09:42:03;;;;;;;4.73;1.37;;;;;;;19.80;44.20;99796.28;4231405;28;20402;-70
2022/05/26 09:44:54;;;;;;;3.07;1.13;;;;;;;20.10;42.75;99795.59;4266266;28;22155;-67
2022/05/26 09:47:45;;;;;;;3.03;1.10;;;;;;;20.32;42.76;99792.47;4272003;28;20250;-67
2022/05/26 09:50:37;;;;;;;3.93;1.17;;;;;;;20.07;41.03;99798.75;4255251;28;20566;-67
2022/05/26 09:53:06;;;;;;;6.13;1.20;;;;;;;19.99;41.01;99796.31;4290850;28;20992;-66
2022/05/26 09:55:48;;;;;;;3.43;1.30;;;;;;;19.65;44.17;99793.06;4277970;28;20237;-66
2022/05/26 09:58:29;;;;;;;1.90;1.00;;;;;;;19.83;43.63;99800.44;4280243;28;24742;-70
2022/05/26 10:00:58;;;;;;;2.77;1.10;;;;;;;19.93;43.66;99808.03;4246711;28;24393;-70
2022/05/26 10:03:42;;;;;;;4.20;1.30;;;;;;;19.52;44.16;99783.19;4245861;28;20231;-68
2022/05/26 10:06:45;;;;;;;6.17;1.30;;;;;;;19.52;44.64;99787.78;4236296;28;20238;-68
2022/05/26 10:09:32;;;;;;;3.67;1.17;;;;;;;19.64;45.02;99785.19;4272786;28;20770;-69
2022/05/26 10:12:02;;;;;;;3.43;1.20;;;;;;;20.00;45.11;99784.50;4274052;28;24006;-67
2022/05/26 10:14:36;;;;;;;4.50;1.50;;;;;;;19.91;44.09;99785.81;4248143;28;22963;-70
2022/05/26 10:17:08;;;;;;;2.60;0.90;;;;;;;19.84;42.52;99795.88;4256240;28;20222;-68
2022/05/26 10:19:50;;;;;;;3.37;0.90;;;;;;;19.79;45.44;99791.13;4263399;28;22159;-70
2022/05/26 10:22:35;;;;;;;3.87;1.00;;;;;;;19.69;45.26;99783.53;4287077;28;20363;-69
2022/05/26 10:25:04;;;;;;;4.37;1.23;;;;;;;19.70;44.58;99787.06;4231908;28;20227;-68
2022/05/26 10:28:01;;;;;;;2.70;1.10;;;;;;;19.53;45.16;99784.88;4273726;28;26343;-66
2022/05/26 10:30:39;;;;;;;2.17;1.00;;;;;;;19.75;44.92;99779.94;4282089;28;20223;-68
2022/05/26 10:33:28;;;;;;;5.20;1.00;;;;;;;19.57;44.37;99780.69;4270350;28;20671;-68
2022/05/26 10:35:58;;;;;;;3.03;1.00;;;;;;;19.52;44.29;99780.50;4251951;28;20640;-68
2022/05/26 10:38:56;;;;;;;5.47;1.17;;;;;;;19.62;45.62;99780.03;4270242;28;20229;-69
2022/05/26 10:41:25;;;;;;;2.47;0.80;;;;;;;19.74;47.00;99781.00;4267193;28;21644;-66
2022/05/26 10:44:17;;;;;;;2.23;0.90;;;;;;;19.76;46.57;99781.59;4253655;28;20234;-67
2022/05/26 10:47:08;;;;;;;2.40;1.07;;;;;;;19.84;45.11;99790.47;4264757;28;20237;-67
2022/05/26 10:49:40;;;;;;;2.77;0.90;;;;;;;20.02;43.64;99782.41;4264993;28;20231;-67
2022/05/26 10:52:12;;;;;;;2.60;1.00;;;;;;;19.86;44.41;99786.50;4269508;28;20321;-66
2022/05/26 10:54:52;;;;;;;1.90;0.80;;;;;;;19.60;45.01;99784.81;4276482;28;20226;-66
2022/05/26 10:57:41;;;;;;;5.70;1.23;;;;;;;19.30;45.53;99796.25;4276407;28;20243;-64
2022/05/26 11:00:11;;;;;;;9.60;1.50;;;;;;;19.31;45.34;99776.28;4257736;28;20304;-66
2022/05/26 11:02:44;;;;;;;3.33;0.93;;;;;;;19.05;45.22;99795.34;4241440;28;21716;-69
2022/05/26 11:05:17;;;;;;;6.63;1.20;;;;;;;18.95;47.45;99785.03;4252531;28;23290;-65
2022/05/26 11:07:49;;;;;;;4.67;1.30;;;;;;;18.79;49.54;99782.84;4239763;28;20284;-67
2022/05/26 11:10:53;;;;;;;2.73;1.00;;;;;;;18.68;49.03;99779.75;4240797;28;25835;-67
2022/05/26 11:13:48;;;;;;;2.93;1.30;;;;;;;18.90;49.85;99774.09;4206332;28;25545;-66
2022/05/26 11:19:21;;;;;;;5.37;1.60;;;;;;;19.52;48.63;99785.06;4261077;28;20230;-65
2022/05/26 11:21:48;;;;;;;9.80;1.33;;;;;;;19.54;48.88;99780.28;4249657;28;20358;-66
2022/05/26 11:24:15;;;;;;;3.77;1.40;;;;;;;19.66;48.68;99775.81;4242547;28;23003;-66
2022/05/26 11:26:52;;;;;;;2.67;1.00;;;;;;;19.66;49.01;99778.53;4244733;28;20270;-66
2022/05/26 11:29:40;;;;;;;4.93;1.43;;;;;;;19.36;50.75;99775.66;4241269;28;20286;-66
2022/05/26 11:38:21;;;;;;;6.27;1.50;;;;;;;19.33;50.61;99773.38;4253003;28;20285;-66
2022/05/26 11:41:00;;;;;;;5.33;1.10;;;;;;;19.65;50.62;99784.97;4295733;28;20236;-69
2022/05/26 11:43:39;;;;;;;2.47;1.37;;;;;;;19.56;52.47;99770.94;4287507;28;20240;-67
2022/05/26 11:46:09;;;;;;;6.63;1.20;;;;;;;19.52;52.34;99772.41;4259492;28;20237;-68
2022/05/26 11:48:42;;;;;;;2.20;1.20;;;;;;;19.64;50.06;99769.81;4273615;28;20323;-66
2022/05/26 11:51:28;;;;;;;5.43;1.10;;;;;;;19.93;49.21;99767.53;4236073;28;20242;-67
2022/05/26 11:53:55;;;;;;;5.23;1.40;;;;;;;20.14;48.65;99768.97;4256109;28;20230;-66
2022/05/26 11:56:29;;;;;;;4.77;1.30;;;;;;;19.93;48.19;99762.94;4264030;28;22316;-67
2022/05/26 11:59:32;;;;;;;3.83;1.67;;;;;;;19.98;48.65;99754.19;4270521;28;20992;-65
2022/05/26 12:01:59;;;;;;;4.20;1.33;;;;;;;19.76;50.46;99751.91;4249379;28;20237;-66
2022/05/26 12:04:30;;;;;;;4.43;1.43;;;;;;;19.71;50.58;99770.63;4245802;28;21170;-67
2022/05/26 12:07:20;;;;;;;5.10;1.20;;;;;;;19.69;48.52;99761.94;4254193;28;20227;-70
2022/05/26 12:09:50;;;;;;;6.97;1.30;;;;;;;19.61;46.89;99748.66;4273347;28;20676;-67
2022/05/26 12:12:17;;;;;;;8.90;1.30;;;;;;;19.84;45.05;99758.88;4255090;28;20225;-67
2022/05/26 12:14:46;;;;;;;5.97;1.13;;;;;;;19.86;45.76;99750.56;4277377;28;20230;-65
2022/05/26 12:17:40;;;;;;;5.27;0.97;;;;;;;19.80;44.68;99757.66;4261106;28;20705;-66
2022/05/26 12:20:10;;;;;;;3.87;0.70;;;;;;;20.07;45.37;99757.44;4250737;28;20235;-68
2022/05/26 12:22:49;;;;;;;5.97;0.90;;;;;;;20.28;43.40;99740.75;4260331;28;21838;-68
2022/05/26 12:25:39;;;;;;;5.77;1.10;;;;;;;20.33;43.65;99748.19;4260269;28;20366;-66
2022/05/26 12:28:06;;;;;;;3.37;0.90;;;;;;;20.17;44.06;99755.84;4263887;28;20230;-67
2022/05/26 12:30:44;;;;;;;5.70;1.10;;;;;;;20.09;43.85;99764.25;4280892;28;20245;-66